createdAt,value
2023-03-29T00:00:21.036Z,7.38
2023-03-29T00:03:24.959Z,4.18
2023-03-29T00:06:33.304Z,4.85
2023-03-29T00:09:36.438Z,4.43
2023-03-29T00:12:40.593Z,6.03
2023-03-29T00:15:43.231Z,6.70
2023-03-29T00:18:47.014Z,5.10
2023-03-29T00:21:49.794Z,5.43
2023-03-29T00:24:54.206Z,6.05
2023-03-29T00:27:57.009Z,5.88
2023-03-29T00:31:07.235Z,5.20
2023-03-29T00:34:11.659Z,4.32
2023-03-29T00:37:14.893Z,5.63
2023-03-29T00:40:17.631Z,8.05
2023-03-29T00:43:20.191Z,6.80
2023-03-29T00:46:22.983Z,7.97
2023-03-29T00:49:27.448Z,5.68
2023-03-29T00:52:32.166Z,6.32
2023-03-29T00:55:38.498Z,5.22
2023-03-29T00:58:45.376Z,6.85
2023-03-29T01:01:55.146Z,6.88
2023-03-29T01:08:07.331Z,6.03
2023-03-29T01:11:15.749Z,6.82
2023-03-29T01:14:21.884Z,4.60
2023-03-29T01:17:25.646Z,4.70
2023-03-29T01:20:42.242Z,3.78
2023-03-29T01:23:59.130Z,7.18
2023-03-29T01:27:06.433Z,4.00
2023-03-29T01:30:14.599Z,5.68
2023-03-29T01:33:23.467Z,5.10
2023-03-29T01:36:30.716Z,4.90
2023-03-29T01:39:34.945Z,5.22
2023-03-29T01:42:46.623Z,4.03
2023-03-29T01:45:56.314Z,5.07
2023-03-29T01:49:03.509Z,4.53
2023-03-29T01:52:12.096Z,4.60
2023-03-29T01:55:20.232Z,4.43
2023-03-29T01:58:26.981Z,5.97
2023-03-29T02:01:38.370Z,5.45
2023-03-29T02:04:47.988Z,6.35
2023-03-29T02:07:52.840Z,5.20
2023-03-29T02:10:55.816Z,4.25
2023-03-29T02:13:58.871Z,5.88
2023-03-29T02:17:16.538Z,4.03
2023-03-29T02:20:22.558Z,4.45
2023-03-29T02:23:34.372Z,4.97
2023-03-29T02:26:37.352Z,4.05
2023-03-29T02:29:40.039Z,7.20
2023-03-29T02:32:50.692Z,6.10
2023-03-29T02:35:57.805Z,3.97
2023-03-29T02:39:04.542Z,4.28
2023-03-29T02:42:07.998Z,5.10
2023-03-29T02:45:13.308Z,4.97
2023-03-29T02:48:21.804Z,6.28
2023-03-29T02:51:28.329Z,4.18
2023-03-29T02:54:31.635Z,4.85
2023-03-29T02:57:35.660Z,4.03
2023-03-29T03:00:41.296Z,5.60
2023-03-29T03:03:45.365Z,5.35
2023-03-29T03:06:49.011Z,4.32
2023-03-29T03:12:54.534Z,3.38
2023-03-29T03:15:56.992Z,5.32
2023-03-29T03:19:01.211Z,5.25
2023-03-29T03:22:05.952Z,4.50
2023-03-29T03:25:11.208Z,4.13
2023-03-29T03:28:13.959Z,3.47
2023-03-29T03:31:17.452Z,3.88
2023-03-29T03:34:21.543Z,4.68
2023-03-29T03:37:24.087Z,3.10
2023-03-29T03:40:28.292Z,5.68
2023-03-29T03:43:31.375Z,5.47
2023-03-29T03:46:33.990Z,4.90
2023-03-29T03:49:37.832Z,2.28
2023-03-29T03:52:40.355Z,3.85
2023-03-29T03:55:42.826Z,3.22
2023-03-29T03:58:45.780Z,4.40
2023-03-29T04:01:48.508Z,3.67
2023-03-29T04:04:52.270Z,6.15
2023-03-29T04:07:56.138Z,4.90
2023-03-29T04:11:01.126Z,4.07
2023-03-29T04:14:04.378Z,1.77
2023-03-29T04:17:07.302Z,5.00
2023-03-29T04:20:12.754Z,4.65
2023-03-29T04:23:16.076Z,7.85
2023-03-29T04:26:18.868Z,4.95
2023-03-29T04:29:21.326Z,4.93
2023-03-29T04:32:24.801Z,3.88
2023-03-29T04:35:28.817Z,5.50
2023-03-29T04:38:31.245Z,4.85
2023-03-29T04:41:34.295Z,2.63
2023-03-29T04:44:37.769Z,5.22
2023-03-29T04:47:40.428Z,4.32
2023-03-29T04:50:47.461Z,5.68
2023-03-29T04:53:50.499Z,4.45
2023-03-29T04:56:53.879Z,4.00
2023-03-29T04:59:58.489Z,4.40
2023-03-29T05:03:01.139Z,4.30
2023-03-29T05:06:07.534Z,4.97
2023-03-29T05:09:10.527Z,4.25
2023-03-29T05:12:13.014Z,6.55
2023-03-29T05:15:15.594Z,4.40
2023-03-29T05:18:18.449Z,4.68
2023-03-29T05:21:22.400Z,5.43
2023-03-29T05:24:25.360Z,4.20
2023-03-29T05:27:27.855Z,5.47
2023-03-29T05:30:30.361Z,7.32
2023-03-29T05:33:34.154Z,6.82
2023-03-29T05:36:39.125Z,5.78
2023-03-29T05:39:43.049Z,5.53
2023-03-29T05:42:46.278Z,5.40
2023-03-29T05:45:49.089Z,5.07
2023-03-29T05:48:51.694Z,5.05
2023-03-29T05:51:57.244Z,6.05
2023-03-29T05:54:59.768Z,5.38
2023-03-29T05:58:02.855Z,4.80
2023-03-29T06:01:05.989Z,7.60
2023-03-29T06:04:08.574Z,5.03
2023-03-29T06:07:13.061Z,6.00
2023-03-29T06:10:15.931Z,5.47
2023-03-29T06:13:18.451Z,6.80
2023-03-29T06:16:20.971Z,7.30
2023-03-29T06:19:24.186Z,4.15
2023-03-29T06:22:28.641Z,6.38
2023-03-29T06:25:31.777Z,5.32
2023-03-29T06:28:34.481Z,6.25
2023-03-29T06:31:37.418Z,4.72
2023-03-29T06:34:40.880Z,4.63
2023-03-29T06:37:49.559Z,8.63
2023-03-29T06:40:52.770Z,6.55
2023-03-29T06:43:55.689Z,8.02
2023-03-29T06:46:58.120Z,9.85
2023-03-29T06:50:00.764Z,10.32
2023-03-29T06:53:05.305Z,8.82
2023-03-29T06:56:09.779Z,11.75
2023-03-29T06:59:13.450Z,8.57
2023-03-29T07:02:16.421Z,10.27
2023-03-29T07:05:20.031Z,7.72
2023-03-29T07:11:35.352Z,11.15
2023-03-29T07:14:37.995Z,10.15
2023-03-29T07:17:40.908Z,12.60
2023-03-29T07:20:43.583Z,12.40
2023-03-29T07:23:47.509Z,14.75
2023-03-29T07:27:03.461Z,7.50
2023-03-29T07:30:11.215Z,7.70
2023-03-29T07:33:14.256Z,9.98
2023-03-29T07:36:17.072Z,7.45
2023-03-29T07:39:22.272Z,7.30
2023-03-29T07:42:24.910Z,9.38
2023-03-29T07:45:29.798Z,7.68
2023-03-29T07:48:32.379Z,7.07
2023-03-29T07:51:36.549Z,8.27
2023-03-29T07:54:40.535Z,6.18
2023-03-29T07:57:44.260Z,5.93
2023-03-29T08:00:46.859Z,7.72
2023-03-29T08:03:49.858Z,6.25
2023-03-29T08:06:52.858Z,7.32
2023-03-29T08:09:57.466Z,8.32
2023-03-29T08:13:00.284Z,6.93
2023-03-29T08:16:03.380Z,5.75
2023-03-29T08:19:06.747Z,4.53
2023-03-29T08:22:09.497Z,5.47
2023-03-29T08:25:13.875Z,5.57
2023-03-29T08:28:16.415Z,5.82
2023-03-29T08:31:19.246Z,3.85
2023-03-29T08:34:28.694Z,4.90
2023-03-29T08:37:47.915Z,4.00
2023-03-29T08:40:51.872Z,4.32
2023-03-29T08:44:04.314Z,4.57
2023-03-29T08:47:18.659Z,3.40
2023-03-29T08:50:23.329Z,4.35
2023-03-29T08:53:30.675Z,3.90
2023-03-29T08:56:39.553Z,4.18
2023-03-29T08:59:44.125Z,5.78
2023-03-29T09:02:48.149Z,4.43
2023-03-29T09:05:55.674Z,4.80
2023-03-29T09:09:02.267Z,5.00
2023-03-29T09:12:17.937Z,3.30
2023-03-29T09:15:25.716Z,3.80
2023-03-29T09:18:38.059Z,4.20
2023-03-29T09:21:47.267Z,3.70
2023-03-29T09:25:03.270Z,3.45
2023-03-29T09:28:14.899Z,3.40
2023-03-29T09:31:27.180Z,4.60
2023-03-29T09:34:32.683Z,3.70
2023-03-29T09:37:39.250Z,5.30
2023-03-29T09:40:45.014Z,4.38
2023-03-29T09:43:51.421Z,2.90
2023-03-29T09:46:57.034Z,3.05
2023-03-29T09:50:03.709Z,4.35
2023-03-29T09:53:06.398Z,4.00
2023-03-29T09:56:09.224Z,3.10
2023-03-29T09:59:13.504Z,5.80
2023-03-29T10:02:16.318Z,3.38
2023-03-29T10:05:19.947Z,3.10
2023-03-29T10:08:26.989Z,4.30
2023-03-29T10:11:32.832Z,3.45
2023-03-29T10:14:39.243Z,3.88
2023-03-29T10:17:43.211Z,3.47
2023-03-29T10:20:45.773Z,5.80
2023-03-29T10:23:49.231Z,3.45
2023-03-29T10:26:55.447Z,2.95
2023-03-29T10:30:01.199Z,4.38
2023-03-29T10:33:05.212Z,5.05
2023-03-29T10:36:09.727Z,4.78
2023-03-29T10:39:16.060Z,3.88
2023-03-29T10:42:23.858Z,3.47
2023-03-29T10:45:30.213Z,5.28
2023-03-29T10:48:38.589Z,4.32
2023-03-29T10:51:46.837Z,4.07
2023-03-29T10:54:51.627Z,4.65
2023-03-29T10:58:07.543Z,3.72
2023-03-29T11:01:19.160Z,4.72
2023-03-29T11:04:31.957Z,4.00
2023-03-29T11:07:38.467Z,4.88
2023-03-29T11:10:50.443Z,2.80
2023-03-29T11:14:00.134Z,2.63
2023-03-29T11:17:19.114Z,4.07
2023-03-29T11:20:30.140Z,2.40
2023-03-29T11:23:46.190Z,4.85
2023-03-29T11:27:00.151Z,3.97
2023-03-29T11:30:13.218Z,4.65
2023-03-29T11:33:34.207Z,4.80
2023-03-29T11:36:50.402Z,3.88
2023-03-29T11:56:46.566Z,5.00
2023-03-29T12:08:38.341Z,5.38
2023-03-29T12:12:17.174Z,3.80
2023-03-29T12:34:25.532Z,4.03
2023-03-29T13:04:38.776Z,2.92
2023-03-29T13:07:48.709Z,3.60
2023-03-29T13:13:57.851Z,2.72
2023-03-29T13:17:15.966Z,4.50
2023-03-29T13:20:39.182Z,4.10
2023-03-29T13:23:49.213Z,3.88
2023-03-29T13:27:01.517Z,5.18
2023-03-29T13:30:22.792Z,4.80
2023-03-29T13:33:52.492Z,6.93
2023-03-29T13:37:08.698Z,7.10
2023-03-29T13:40:34.405Z,6.47
2023-03-29T13:43:49.721Z,4.03
2023-03-29T13:47:03.960Z,5.30
2023-03-29T13:50:16.541Z,5.85
2023-03-29T13:53:27.913Z,4.32
2023-03-29T13:56:37.429Z,4.32
2023-03-29T13:59:49.103Z,5.60
2023-03-29T14:02:56.062Z,6.43
2023-03-29T14:06:02.633Z,6.03
2023-03-29T14:09:08.976Z,4.57
2023-03-29T14:12:14.996Z,5.43
2023-03-29T14:15:24.900Z,4.78
2023-03-29T14:18:33.004Z,4.20
2023-03-29T14:21:36.989Z,5.30
2023-03-29T14:24:41.272Z,4.60
2023-03-29T14:27:44.000Z,5.63
2023-03-29T14:30:47.786Z,4.60
2023-03-29T14:33:54.420Z,3.60
2023-03-29T14:36:58.682Z,3.28
2023-03-29T14:40:02.351Z,3.78
2023-03-29T14:46:10.929Z,5.40
2023-03-29T14:49:16.828Z,4.80
2023-03-29T14:52:20.977Z,3.95
2023-03-29T14:55:24.864Z,4.78
2023-03-29T14:58:29.678Z,3.70
2023-03-29T15:01:32.425Z,6.88
2023-03-29T15:04:36.088Z,5.07
2023-03-29T15:10:45.089Z,5.68
2023-03-29T15:13:49.066Z,5.32
2023-03-29T15:16:54.223Z,6.60
2023-03-29T15:20:01.212Z,8.15
2023-03-29T15:23:20.065Z,6.40
2023-03-29T15:26:26.214Z,5.05
2023-03-29T15:29:36.971Z,5.13
2023-03-29T15:32:41.645Z,5.20
2023-03-29T15:35:50.084Z,4.57
2023-03-29T15:38:53.929Z,4.57
2023-03-29T15:41:58.436Z,5.50
2023-03-29T15:45:06.131Z,6.05
2023-03-29T15:48:16.232Z,4.10
2023-03-29T15:51:18.661Z,4.93
2023-03-29T15:54:24.433Z,4.13
2023-03-29T15:57:27.159Z,4.45
2023-03-29T16:00:29.861Z,4.30
2023-03-29T16:03:32.390Z,4.22
2023-03-29T16:06:36.044Z,8.50
2023-03-29T16:12:42.893Z,5.35
2023-03-29T16:15:46.749Z,4.97
2023-03-29T16:18:49.268Z,5.07
2023-03-29T16:21:52.581Z,5.38
2023-03-29T16:24:56.423Z,3.88
2023-03-29T16:27:58.855Z,4.97
2023-03-29T16:31:01.509Z,5.82
2023-03-29T16:34:04.632Z,5.47
2023-03-29T16:37:07.633Z,5.68
2023-03-29T16:40:13.959Z,3.90
2023-03-29T16:43:18.698Z,5.88
2023-03-29T16:46:21.297Z,3.85
2023-03-29T16:49:24.458Z,4.38
2023-03-29T16:52:27.649Z,3.65
2023-03-29T16:55:31.730Z,2.53
2023-03-29T16:58:34.335Z,4.95
2023-03-29T17:01:37.386Z,4.60
2023-03-29T17:04:40.047Z,3.13
2023-03-29T17:07:43.422Z,4.22
2023-03-29T17:10:47.698Z,6.13
2023-03-29T17:13:50.463Z,4.03
2023-03-29T17:16:53.511Z,3.53
2023-03-29T17:19:56.739Z,4.65
2023-03-29T17:22:59.389Z,4.00
2023-03-29T17:26:03.437Z,3.60
2023-03-29T17:29:06.550Z,4.15
2023-03-29T17:32:09.041Z,3.65
2023-03-29T17:35:12.711Z,4.45
2023-03-29T17:38:15.343Z,3.67
2023-03-29T17:41:19.222Z,6.03
2023-03-29T17:44:21.997Z,2.97
2023-03-29T17:47:24.450Z,3.13
2023-03-29T17:50:27.245Z,6.35
2023-03-29T17:53:29.903Z,2.92
2023-03-29T17:56:33.892Z,3.67
2023-03-29T17:59:36.936Z,3.63
2023-03-29T18:02:40.633Z,4.93
2023-03-29T18:05:43.236Z,3.70
2023-03-29T18:08:46.364Z,4.10
2023-03-29T18:11:50.608Z,4.30
2023-03-29T18:14:53.349Z,3.55
2023-03-29T18:17:56.178Z,4.00
2023-03-29T18:20:59.062Z,3.55
2023-03-29T18:24:01.542Z,3.67
2023-03-29T18:27:05.596Z,5.40
2023-03-29T18:30:09.497Z,4.40
2023-03-29T18:33:12.235Z,3.95
2023-03-29T18:36:15.535Z,3.47
2023-03-29T18:39:18.310Z,4.55
2023-03-29T18:42:22.234Z,4.35
2023-03-29T18:45:24.748Z,5.30
2023-03-29T18:48:27.456Z,4.18
2023-03-29T18:51:31.005Z,5.82
2023-03-29T18:54:34.753Z,4.38
2023-03-29T18:57:38.610Z,3.53
2023-03-29T19:00:42.206Z,4.13
2023-03-29T19:06:49.295Z,2.30
2023-03-29T19:09:51.770Z,3.58
2023-03-29T19:12:55.541Z,3.28
2023-03-29T19:15:58.013Z,3.85
2023-03-29T19:19:00.569Z,3.92
2023-03-29T19:22:03.151Z,4.03
2023-03-29T19:25:06.815Z,3.15
2023-03-29T19:31:13.127Z,3.33
2023-03-29T19:34:19.591Z,3.85
2023-03-29T19:37:22.149Z,5.65
2023-03-29T19:40:24.588Z,5.13
2023-03-29T19:43:28.477Z,2.95
2023-03-29T19:46:31.073Z,3.83
2023-03-29T19:49:36.267Z,4.72
2023-03-29T19:52:38.817Z,4.07
2023-03-29T19:55:42.411Z,3.72
2023-03-29T20:01:51.623Z,2.83
2023-03-29T20:04:55.077Z,4.00
2023-03-29T20:07:57.711Z,4.13
2023-03-29T20:11:01.010Z,4.60
2023-03-29T20:14:05.097Z,4.68
2023-03-29T20:17:07.657Z,3.28
2023-03-29T20:20:12.052Z,4.75
2023-03-29T20:23:15.454Z,6.03
2023-03-29T20:26:18.146Z,3.70
2023-03-29T20:29:22.165Z,4.38
2023-03-29T20:32:24.765Z,3.03
2023-03-29T20:35:27.363Z,4.03
2023-03-29T20:38:30.319Z,4.22
2023-03-29T20:41:33.788Z,4.43
2023-03-29T20:47:50.176Z,5.70
2023-03-29T20:50:53.053Z,4.70
2023-03-29T20:54:02.087Z,4.85
2023-03-29T20:57:05.023Z,3.15
2023-03-29T21:00:12.196Z,3.28
2023-03-29T21:03:15.210Z,3.92
2023-03-29T21:06:19.296Z,3.50
2023-03-29T21:09:23.604Z,3.40
2023-03-29T21:12:26.161Z,4.22
2023-03-29T21:15:31.071Z,2.80
2023-03-29T21:18:34.183Z,2.90
2023-03-29T21:21:36.858Z,3.10
2023-03-29T21:24:39.306Z,3.55
2023-03-29T21:27:42.370Z,2.88
2023-03-29T21:30:46.241Z,4.93
2023-03-29T21:33:48.794Z,4.07
2023-03-29T21:36:51.651Z,5.07
2023-03-29T21:39:54.356Z,5.38
2023-03-29T21:42:56.785Z,3.55
2023-03-29T21:46:00.895Z,3.65
2023-03-29T21:49:03.697Z,3.42
2023-03-29T21:52:06.236Z,2.58
2023-03-29T21:55:09.553Z,4.07
2023-03-29T21:58:12.263Z,2.47
2023-03-29T22:01:16.195Z,3.72
2023-03-29T22:04:29.545Z,3.22
2023-03-29T22:07:39.730Z,5.20
2023-03-29T22:10:42.288Z,4.63
2023-03-29T22:13:45.122Z,2.97
2023-03-29T22:16:49.164Z,2.58
2023-03-29T22:19:51.621Z,4.75
2023-03-29T22:22:54.170Z,4.22
2023-03-29T22:25:56.731Z,4.50
2023-03-29T22:29:01.141Z,3.58
2023-03-29T22:32:05.813Z,3.92
2023-03-29T22:35:09.252Z,4.60
2023-03-29T22:38:13.233Z,4.32
2023-03-29T22:41:17.475Z,4.63
2023-03-29T22:44:19.994Z,3.95
2023-03-29T22:47:23.854Z,5.15
2023-03-29T22:50:26.435Z,5.43
2023-03-29T22:53:29.284Z,3.92
2023-03-29T22:56:31.774Z,3.63
2023-03-29T22:59:34.303Z,3.55
2023-03-29T23:02:38.503Z,3.10
2023-03-29T23:05:41.250Z,3.38
2023-03-29T23:08:43.909Z,4.30
2023-03-29T23:11:46.434Z,4.97
2023-03-29T23:14:49.227Z,3.15
2023-03-29T23:17:53.000Z,4.10
2023-03-29T23:20:57.221Z,5.45
2023-03-29T23:24:00.555Z,3.05
2023-03-29T23:27:04.866Z,4.07
2023-03-29T23:30:09.661Z,4.85
2023-03-29T23:33:14.469Z,5.90
2023-03-29T23:36:19.083Z,3.58
2023-03-29T23:39:21.614Z,4.45
2023-03-29T23:42:24.547Z,3.35
2023-03-29T23:45:28.520Z,2.65
2023-03-29T23:48:34.475Z,5.05
2023-03-29T23:51:37.068Z,4.82
2023-03-29T23:54:39.570Z,3.22
2023-03-29T23:57:42.807Z,6.05
